Acosta, Argentina
Current Conditions -  °F | °C
As of 7:00 PM on Wednesday 22 Oct 2014 (Local Time) from SASA Reporting Station
Overcast Overcast  
Wind Chill: 66°   Ceiling: 3500
Heat Index: 66°   Visibility: 5mi
Dew Point: 59°   Wind: 9mph
Humidity: 78%   Direction: 270°W
Pressure: 30.12"   Gusts: NA
Location:  25.59°S, 65.46°W
Report Text: SASA 222200Z 27008KT 8000 FEW010 FEW030CBOVC035 19/15 Q1020
Loading
Personal Weather Stations






























Interactive Weather Map
Tropical Storm Tracking
New forecast layout! Learn more

10-Day Weather Forecast

Advertisements
Track Severe Weather on mobile